sensor_id;sensor_type;location;lat;lon;timestamp;P1;durP1;ratioP1;P2;durP2;ratioP2
37559;SDS011;23398;50.928;7.084;2023-03-14T00:01:23;2.38;;;0.95;;
37559;SDS011;23398;50.928;7.084;2023-03-14T00:03:50;1.98;;;1.00;;
37559;SDS011;23398;50.928;7.084;2023-03-14T00:06:16;3.40;;;1.20;;
37559;SDS011;23398;50.928;7.084;2023-03-14T00:08:43;3.35;;;1.08;;
37559;SDS011;23398;50.928;7.084;2023-03-14T00:11:10;1.23;;;0.90;;
37559;SDS011;23398;50.928;7.084;2023-03-14T00:13:37;3.00;;;1.10;;
37559;SDS011;23398;50.928;7.084;2023-03-14T00:16:05;2.63;;;1.00;;
37559;SDS011;23398;50.928;7.084;2023-03-14T00:18:32;3.22;;;1.10;;
37559;SDS011;23398;50.928;7.084;2023-03-14T00:20:58;2.65;;;1.15;;
37559;SDS011;23398;50.928;7.084;2023-03-14T00:23:25;2.05;;;1.38;;
37559;SDS011;23398;50.928;7.084;2023-03-14T00:25:52;3.22;;;1.15;;
37559;SDS011;23398;50.928;7.084;2023-03-14T00:28:18;1.10;;;0.80;;
37559;SDS011;23398;50.928;7.084;2023-03-14T00:30:43;2.33;;;1.10;;
37559;SDS011;23398;50.928;7.084;2023-03-14T00:33:09;3.63;;;1.10;;
37559;SDS011;23398;50.928;7.084;2023-03-14T00:35:34;2.22;;;1.02;;
37559;SDS011;23398;50.928;7.084;2023-03-14T00:38:00;2.35;;;1.15;;
37559;SDS011;23398;50.928;7.084;2023-03-14T00:40:26;1.58;;;1.00;;
37559;SDS011;23398;50.928;7.084;2023-03-14T00:42:51;2.28;;;1.30;;
37559;SDS011;23398;50.928;7.084;2023-03-14T00:45:17;2.70;;;1.40;;
37559;SDS011;23398;50.928;7.084;2023-03-14T00:47:42;2.85;;;1.27;;
37559;SDS011;23398;50.928;7.084;2023-03-14T00:50:10;2.75;;;1.20;;
37559;SDS011;23398;50.928;7.084;2023-03-14T00:52:37;4.28;;;1.30;;
37559;SDS011;23398;50.928;7.084;2023-03-14T00:55:03;3.85;;;1.08;;
37559;SDS011;23398;50.928;7.084;2023-03-14T00:57:29;3.22;;;1.15;;
37559;SDS011;23398;50.928;7.084;2023-03-14T00:59:54;3.85;;;1.23;;
37559;SDS011;23398;50.928;7.084;2023-03-14T01:02:20;2.50;;;1.20;;
37559;SDS011;23398;50.928;7.084;2023-03-14T01:04:47;2.22;;;1.10;;
37559;SDS011;23398;50.928;7.084;2023-03-14T01:07:14;2.75;;;1.20;;
37559;SDS011;23398;50.928;7.084;2023-03-14T01:09:39;2.92;;;1.33;;
37559;SDS011;23398;50.928;7.084;2023-03-14T01:12:05;3.95;;;1.23;;
37559;SDS011;23398;50.928;7.084;2023-03-14T01:14:31;3.08;;;1.00;;
37559;SDS011;23398;50.928;7.084;2023-03-14T01:16:56;6.05;;;1.45;;
37559;SDS011;23398;50.928;7.084;2023-03-14T01:19:26;4.70;;;1.25;;
37559;SDS011;23398;50.928;7.084;2023-03-14T01:21:52;1.45;;;1.00;;
37559;SDS011;23398;50.928;7.084;2023-03-14T01:24:18;1.75;;;1.00;;
37559;SDS011;23398;50.928;7.084;2023-03-14T01:26:44;2.13;;;1.08;;
37559;SDS011;23398;50.928;7.084;2023-03-14T01:29:09;2.30;;;1.10;;
37559;SDS011;23398;50.928;7.084;2023-03-14T01:31:35;1.88;;;1.17;;
37559;SDS011;23398;50.928;7.084;2023-03-14T01:34:01;1.65;;;0.95;;
37559;SDS011;23398;50.928;7.084;2023-03-14T01:36:26;3.30;;;1.17;;
37559;SDS011;23398;50.928;7.084;2023-03-14T01:38:52;2.72;;;1.20;;
37559;SDS011;23398;50.928;7.084;2023-03-14T01:41:19;2.33;;;1.15;;
37559;SDS011;23398;50.928;7.084;2023-03-14T01:43:47;2.17;;;1.13;;
37559;SDS011;23398;50.928;7.084;2023-03-14T01:54:40;1.58;;;0.75;;
37559;SDS011;23398;50.928;7.084;2023-03-14T01:57:08;2.33;;;0.90;;
37559;SDS011;23398;50.928;7.084;2023-03-14T01:59:42;2.00;;;0.82;;
37559;SDS011;23398;50.928;7.084;2023-03-14T02:02:11;2.28;;;0.80;;
37559;SDS011;23398;50.928;7.084;2023-03-14T02:04:39;1.55;;;0.73;;
37559;SDS011;23398;50.928;7.084;2023-03-14T02:07:13;3.03;;;0.88;;
37559;SDS011;23398;50.928;7.084;2023-03-14T02:10:06;0.77;;;0.68;;
37559;SDS011;23398;50.928;7.084;2023-03-14T02:12:34;2.28;;;0.93;;
37559;SDS011;23398;50.928;7.084;2023-03-14T02:15:01;3.85;;;0.95;;
37559;SDS011;23398;50.928;7.084;2023-03-14T02:17:27;2.15;;;1.00;;
37559;SDS011;23398;50.928;7.084;2023-03-14T02:19:59;1.15;;;0.80;;
37559;SDS011;23398;50.928;7.084;2023-03-14T02:22:45;2.10;;;1.00;;
37559;SDS011;23398;50.928;7.084;2023-03-14T02:27:43;1.92;;;0.80;;
37559;SDS011;23398;50.928;7.084;2023-03-14T02:30:11;0.90;;;0.70;;
37559;SDS011;23398;50.928;7.084;2023-03-14T02:32:40;1.05;;;0.80;;
37559;SDS011;23398;50.928;7.084;2023-03-14T02:35:09;1.63;;;0.80;;
37559;SDS011;23398;50.928;7.084;2023-03-14T02:38:00;1.20;;;0.90;;
37559;SDS011;23398;50.928;7.084;2023-03-14T02:40:36;1.58;;;0.65;;
37559;SDS011;23398;50.928;7.084;2023-03-14T02:43:01;1.00;;;0.70;;
37559;SDS011;23398;50.928;7.084;2023-03-14T02:48:07;1.75;;;0.70;;
37559;SDS011;23398;50.928;7.084;2023-03-14T02:50:37;1.13;;;0.68;;
37559;SDS011;23398;50.928;7.084;2023-03-14T02:53:03;0.95;;;0.68;;
37559;SDS011;23398;50.928;7.084;2023-03-14T02:55:28;1.20;;;0.70;;
37559;SDS011;23398;50.928;7.084;2023-03-14T02:57:54;1.17;;;0.70;;
37559;SDS011;23398;50.928;7.084;2023-03-14T03:00:20;2.45;;;0.80;;
37559;SDS011;23398;50.928;7.084;2023-03-14T03:02:45;2.65;;;1.00;;
37559;SDS011;23398;50.928;7.084;2023-03-14T03:05:11;1.95;;;0.85;;
37559;SDS011;23398;50.928;7.084;2023-03-14T03:07:37;2.40;;;1.02;;
37559;SDS011;23398;50.928;7.084;2023-03-14T03:10:03;0.98;;;0.75;;
37559;SDS011;23398;50.928;7.084;2023-03-14T03:12:29;3.10;;;1.00;;
37559;SDS011;23398;50.928;7.084;2023-03-14T03:14:55;1.38;;;0.60;;
37559;SDS011;23398;50.928;7.084;2023-03-14T03:17:20;1.35;;;0.85;;
37559;SDS011;23398;50.928;7.084;2023-03-14T03:19:46;1.80;;;0.68;;
37559;SDS011;23398;50.928;7.084;2023-03-14T03:22:12;1.98;;;1.02;;
37559;SDS011;23398;50.928;7.084;2023-03-14T03:24:37;2.97;;;0.82;;
37559;SDS011;23398;50.928;7.084;2023-03-14T03:27:03;2.17;;;0.80;;
37559;SDS011;23398;50.928;7.084;2023-03-14T03:29:29;1.60;;;0.93;;
37559;SDS011;23398;50.928;7.084;2023-03-14T03:31:55;3.28;;;1.10;;
37559;SDS011;23398;50.928;7.084;2023-03-14T03:34:20;3.03;;;1.02;;
37559;SDS011;23398;50.928;7.084;2023-03-14T03:36:46;1.08;;;0.82;;
37559;SDS011;23398;50.928;7.084;2023-03-14T03:39:11;2.05;;;0.93;;
37559;SDS011;23398;50.928;7.084;2023-03-14T03:41:37;2.28;;;1.10;;
37559;SDS011;23398;50.928;7.084;2023-03-14T03:44:03;2.75;;;1.10;;
37559;SDS011;23398;50.928;7.084;2023-03-14T03:46:28;3.58;;;1.10;;
37559;SDS011;23398;50.928;7.084;2023-03-14T03:48:58;3.28;;;1.00;;
37559;SDS011;23398;50.928;7.084;2023-03-14T03:51:24;3.25;;;1.10;;
37559;SDS011;23398;50.928;7.084;2023-03-14T03:53:50;2.83;;;1.10;;
37559;SDS011;23398;50.928;7.084;2023-03-14T03:56:16;3.17;;;1.17;;
37559;SDS011;23398;50.928;7.084;2023-03-14T03:58:42;3.13;;;1.40;;
37559;SDS011;23398;50.928;7.084;2023-03-14T04:01:08;2.10;;;0.85;;
37559;SDS011;23398;50.928;7.084;2023-03-14T04:03:35;4.63;;;1.08;;
37559;SDS011;23398;50.928;7.084;2023-03-14T04:06:04;4.28;;;1.30;;
37559;SDS011;23398;50.928;7.084;2023-03-14T04:08:32;2.45;;;1.13;;
37559;SDS011;23398;50.928;7.084;2023-03-14T04:10:58;3.85;;;1.00;;
37559;SDS011;23398;50.928;7.084;2023-03-14T04:13:25;3.70;;;1.30;;
37559;SDS011;23398;50.928;7.084;2023-03-14T04:15:52;1.33;;;0.98;;
37559;SDS011;23398;50.928;7.084;2023-03-14T04:18:18;2.72;;;1.27;;
37559;SDS011;23398;50.928;7.084;2023-03-14T04:20:44;3.05;;;1.42;;
37559;SDS011;23398;50.928;7.084;2023-03-14T04:23:09;3.03;;;1.10;;
37559;SDS011;23398;50.928;7.084;2023-03-14T04:25:35;3.75;;;1.25;;
37559;SDS011;23398;50.928;7.084;2023-03-14T04:28:01;3.08;;;1.25;;
37559;SDS011;23398;50.928;7.084;2023-03-14T04:30:28;3.65;;;1.20;;
37559;SDS011;23398;50.928;7.084;2023-03-14T04:32:53;3.38;;;1.10;;
37559;SDS011;23398;50.928;7.084;2023-03-14T04:35:19;4.88;;;1.50;;
37559;SDS011;23398;50.928;7.084;2023-03-14T04:37:44;2.97;;;1.08;;
37559;SDS011;23398;50.928;7.084;2023-03-14T04:40:13;2.30;;;1.10;;
37559;SDS011;23398;50.928;7.084;2023-03-14T04:42:40;3.80;;;1.10;;
37559;SDS011;23398;50.928;7.084;2023-03-14T04:45:06;3.20;;;0.90;;
37559;SDS011;23398;50.928;7.084;2023-03-14T04:47:32;1.90;;;0.85;;
37559;SDS011;23398;50.928;7.084;2023-03-14T04:49:58;2.42;;;1.20;;
37559;SDS011;23398;50.928;7.084;2023-03-14T04:52:23;4.45;;;1.15;;
37559;SDS011;23398;50.928;7.084;2023-03-14T04:54:49;3.15;;;1.10;;
37559;SDS011;23398;50.928;7.084;2023-03-14T04:57:14;3.97;;;1.10;;
37559;SDS011;23398;50.928;7.084;2023-03-14T04:59:40;1.65;;;1.00;;
37559;SDS011;23398;50.928;7.084;2023-03-14T05:02:05;2.53;;;1.05;;
37559;SDS011;23398;50.928;7.084;2023-03-14T05:04:31;2.40;;;1.10;;
37559;SDS011;23398;50.928;7.084;2023-03-14T05:06:58;3.00;;;1.15;;
37559;SDS011;23398;50.928;7.084;2023-03-14T05:09:24;1.83;;;0.95;;
37559;SDS011;23398;50.928;7.084;2023-03-14T05:11:50;3.30;;;1.00;;
37559;SDS011;23398;50.928;7.084;2023-03-14T05:14:15;3.25;;;0.90;;
37559;SDS011;23398;50.928;7.084;2023-03-14T05:16:41;2.60;;;1.20;;
37559;SDS011;23398;50.928;7.084;2023-03-14T05:19:07;4.22;;;1.00;;
37559;SDS011;23398;50.928;7.084;2023-03-14T05:21:32;1.17;;;0.77;;
37559;SDS011;23398;50.928;7.084;2023-03-14T05:23:58;2.15;;;0.80;;
37559;SDS011;23398;50.928;7.084;2023-03-14T05:26:23;1.42;;;0.70;;
37559;SDS011;23398;50.928;7.084;2023-03-14T05:28:49;1.98;;;0.80;;
37559;SDS011;23398;50.928;7.084;2023-03-14T05:31:14;2.65;;;0.90;;
37559;SDS011;23398;50.928;7.084;2023-03-14T05:33:40;1.88;;;0.98;;
37559;SDS011;23398;50.928;7.084;2023-03-14T05:36:06;2.30;;;1.10;;
37559;SDS011;23398;50.928;7.084;2023-03-14T05:38:32;1.25;;;0.73;;
37559;SDS011;23398;50.928;7.084;2023-03-14T05:40:58;1.95;;;0.80;;
37559;SDS011;23398;50.928;7.084;2023-03-14T05:43:23;0.88;;;0.70;;
37559;SDS011;23398;50.928;7.084;2023-03-14T05:45:49;1.15;;;0.68;;
37559;SDS011;23398;50.928;7.084;2023-03-14T05:48:14;1.02;;;0.70;;
37559;SDS011;23398;50.928;7.084;2023-03-14T05:50:41;0.73;;;0.70;;
37559;SDS011;23398;50.928;7.084;2023-03-14T05:53:07;1.17;;;0.70;;
37559;SDS011;23398;50.928;7.084;2023-03-14T05:55:32;1.13;;;0.65;;
37559;SDS011;23398;50.928;7.084;2023-03-14T05:57:58;0.88;;;0.70;;
37559;SDS011;23398;50.928;7.084;2023-03-14T06:00:23;0.63;;;0.60;;
37559;SDS011;23398;50.928;7.084;2023-03-14T06:02:49;0.93;;;0.80;;
37559;SDS011;23398;50.928;7.084;2023-03-14T06:05:15;0.52;;;0.52;;
37559;SDS011;23398;50.928;7.084;2023-03-14T06:07:40;0.50;;;0.50;;
37559;SDS011;23398;50.928;7.084;2023-03-14T06:10:06;0.43;;;0.40;;
37559;SDS011;23398;50.928;7.084;2023-03-14T06:12:32;0.70;;;0.55;;
37559;SDS011;23398;50.928;7.084;2023-03-14T06:14:58;1.35;;;0.55;;
37559;SDS011;23398;50.928;7.084;2023-03-14T06:17:23;0.43;;;0.40;;
37559;SDS011;23398;50.928;7.084;2023-03-14T06:19:49;0.40;;;0.40;;
37559;SDS011;23398;50.928;7.084;2023-03-14T06:22:15;0.50;;;0.50;;
37559;SDS011;23398;50.928;7.084;2023-03-14T06:24:40;1.38;;;0.50;;
37559;SDS011;23398;50.928;7.084;2023-03-14T06:27:06;0.50;;;0.50;;
37559;SDS011;23398;50.928;7.084;2023-03-14T06:29:32;0.63;;;0.50;;
37559;SDS011;23398;50.928;7.084;2023-03-14T06:31:57;1.33;;;0.60;;
37559;SDS011;23398;50.928;7.084;2023-03-14T06:34:23;0.60;;;0.60;;
37559;SDS011;23398;50.928;7.084;2023-03-14T06:36:48;0.50;;;0.50;;
37559;SDS011;23398;50.928;7.084;2023-03-14T06:39:14;0.63;;;0.43;;
37559;SDS011;23398;50.928;7.084;2023-03-14T06:41:40;0.45;;;0.45;;
37559;SDS011;23398;50.928;7.084;2023-03-14T06:44:05;1.83;;;0.60;;
37559;SDS011;23398;50.928;7.084;2023-03-14T06:46:31;0.50;;;0.50;;
37559;SDS011;23398;50.928;7.084;2023-03-14T06:48:56;1.10;;;0.60;;
37559;SDS011;23398;50.928;7.084;2023-03-14T06:51:22;0.82;;;0.60;;
37559;SDS011;23398;50.928;7.084;2023-03-14T06:53:47;0.50;;;0.50;;
37559;SDS011;23398;50.928;7.084;2023-03-14T06:56:13;0.50;;;0.50;;
37559;SDS011;23398;50.928;7.084;2023-03-14T06:58:39;0.75;;;0.55;;
37559;SDS011;23398;50.928;7.084;2023-03-14T07:01:04;0.77;;;0.45;;
37559;SDS011;23398;50.928;7.084;2023-03-14T07:03:30;1.00;;;0.63;;
37559;SDS011;23398;50.928;7.084;2023-03-14T07:05:56;0.40;;;0.40;;
37559;SDS011;23398;50.928;7.084;2023-03-14T07:08:22;0.50;;;0.50;;
37559;SDS011;23398;50.928;7.084;2023-03-14T07:10:47;1.05;;;0.50;;
37559;SDS011;23398;50.928;7.084;2023-03-14T07:13:13;0.50;;;0.50;;
37559;SDS011;23398;50.928;7.084;2023-03-14T07:15:38;0.38;;;0.38;;
37559;SDS011;23398;50.928;7.084;2023-03-14T07:18:04;0.40;;;0.40;;
37559;SDS011;23398;50.928;7.084;2023-03-14T07:20:30;3.10;;;0.50;;
37559;SDS011;23398;50.928;7.084;2023-03-14T07:22:57;0.47;;;0.47;;
37559;SDS011;23398;50.928;7.084;2023-03-14T07:25:24;0.35;;;0.30;;
37559;SDS011;23398;50.928;7.084;2023-03-14T07:27:50;0.43;;;0.30;;
37559;SDS011;23398;50.928;7.084;2023-03-14T07:30:16;0.80;;;0.60;;
37559;SDS011;23398;50.928;7.084;2023-03-14T07:32:42;1.27;;;0.70;;
37559;SDS011;23398;50.928;7.084;2023-03-14T07:35:07;0.60;;;0.60;;
37559;SDS011;23398;50.928;7.084;2023-03-14T07:37:33;0.50;;;0.40;;
37559;SDS011;23398;50.928;7.084;2023-03-14T07:39:59;0.50;;;0.50;;
37559;SDS011;23398;50.928;7.084;2023-03-14T07:42:24;0.30;;;0.30;;
37559;SDS011;23398;50.928;7.084;2023-03-14T07:44:50;0.45;;;0.45;;
37559;SDS011;23398;50.928;7.084;2023-03-14T07:47:15;1.92;;;0.50;;
37559;SDS011;23398;50.928;7.084;2023-03-14T07:49:41;0.40;;;0.40;;
37559;SDS011;23398;50.928;7.084;2023-03-14T07:52:07;1.80;;;1.02;;
37559;SDS011;23398;50.928;7.084;2023-03-14T07:54:32;0.70;;;0.70;;
37559;SDS011;23398;50.928;7.084;2023-03-14T07:56:58;0.60;;;0.60;;
37559;SDS011;23398;50.928;7.084;2023-03-14T07:59:25;0.50;;;0.50;;
37559;SDS011;23398;50.928;7.084;2023-03-14T08:01:51;0.52;;;0.50;;
37559;SDS011;23398;50.928;7.084;2023-03-14T08:04:17;0.40;;;0.40;;
37559;SDS011;23398;50.928;7.084;2023-03-14T08:06:42;0.50;;;0.50;;
37559;SDS011;23398;50.928;7.084;2023-03-14T08:09:08;0.40;;;0.40;;
37559;SDS011;23398;50.928;7.084;2023-03-14T08:11:34;0.40;;;0.40;;
37559;SDS011;23398;50.928;7.084;2023-03-14T08:14:00;0.50;;;0.50;;
37559;SDS011;23398;50.928;7.084;2023-03-14T08:16:25;1.13;;;0.40;;
37559;SDS011;23398;50.928;7.084;2023-03-14T08:18:51;0.30;;;0.30;;
37559;SDS011;23398;50.928;7.084;2023-03-14T08:21:16;0.32;;;0.32;;
37559;SDS011;23398;50.928;7.084;2023-03-14T08:23:42;0.40;;;0.40;;
37559;SDS011;23398;50.928;7.084;2023-03-14T08:26:08;0.50;;;0.50;;
37559;SDS011;23398;50.928;7.084;2023-03-14T08:28:33;0.50;;;0.50;;
37559;SDS011;23398;50.928;7.084;2023-03-14T08:30:59;0.40;;;0.40;;
37559;SDS011;23398;50.928;7.084;2023-03-14T08:33:26;0.30;;;0.30;;
37559;SDS011;23398;50.928;7.084;2023-03-14T08:35:54;0.50;;;0.50;;
37559;SDS011;23398;50.928;7.084;2023-03-14T08:38:21;2.70;;;0.90;;
37559;SDS011;23398;50.928;7.084;2023-03-14T08:40:46;0.70;;;0.52;;
37559;SDS011;23398;50.928;7.084;2023-03-14T08:43:12;0.55;;;0.50;;
37559;SDS011;23398;50.928;7.084;2023-03-14T08:45:38;0.40;;;0.40;;
37559;SDS011;23398;50.928;7.084;2023-03-14T08:48:03;0.38;;;0.38;;
37559;SDS011;23398;50.928;7.084;2023-03-14T08:50:29;0.30;;;0.30;;
37559;SDS011;23398;50.928;7.084;2023-03-14T08:52:55;0.82;;;0.50;;
37559;SDS011;23398;50.928;7.084;2023-03-14T08:55:24;2.03;;;1.38;;
37559;SDS011;23398;50.928;7.084;2023-03-14T08:57:52;1.58;;;1.00;;
37559;SDS011;23398;50.928;7.084;2023-03-14T09:00:18;0.60;;;0.60;;
37559;SDS011;23398;50.928;7.084;2023-03-14T09:02:44;0.60;;;0.47;;
37559;SDS011;23398;50.928;7.084;2023-03-14T09:05:09;0.40;;;0.40;;
37559;SDS011;23398;50.928;7.084;2023-03-14T09:07:35;0.50;;;0.50;;
37559;SDS011;23398;50.928;7.084;2023-03-14T09:10:02;0.40;;;0.40;;
37559;SDS011;23398;50.928;7.084;2023-03-14T09:12:28;0.85;;;0.52;;
37559;SDS011;23398;50.928;7.084;2023-03-14T09:14:54;0.70;;;0.50;;
37559;SDS011;23398;50.928;7.084;2023-03-14T09:17:19;0.70;;;0.60;;
37559;SDS011;23398;50.928;7.084;2023-03-14T09:19:45;0.90;;;0.60;;
37559;SDS011;23398;50.928;7.084;2023-03-14T09:22:11;0.63;;;0.63;;
37559;SDS011;23398;50.928;7.084;2023-03-14T09:24:36;0.70;;;0.60;;
37559;SDS011;23398;50.928;7.084;2023-03-14T09:27:02;0.82;;;0.50;;
37559;SDS011;23398;50.928;7.084;2023-03-14T09:29:27;1.80;;;0.73;;
37559;SDS011;23398;50.928;7.084;2023-03-14T09:31:53;0.70;;;0.50;;
37559;SDS011;23398;50.928;7.084;2023-03-14T09:34:18;0.82;;;0.60;;
37559;SDS011;23398;50.928;7.084;2023-03-14T09:36:44;0.50;;;0.50;;
37559;SDS011;23398;50.928;7.084;2023-03-14T09:39:10;1.52;;;0.70;;
37559;SDS011;23398;50.928;7.084;2023-03-14T09:41:37;1.58;;;0.80;;
37559;SDS011;23398;50.928;7.084;2023-03-14T09:44:16;2.95;;;0.90;;
37559;SDS011;23398;50.928;7.084;2023-03-14T09:47:09;0.85;;;0.60;;
37559;SDS011;23398;50.928;7.084;2023-03-14T09:49:41;1.13;;;0.57;;
37559;SDS011;23398;50.928;7.084;2023-03-14T09:52:11;0.50;;;0.50;;
37559;SDS011;23398;50.928;7.084;2023-03-14T09:54:47;0.73;;;0.60;;
37559;SDS011;23398;50.928;7.084;2023-03-14T09:57:19;0.93;;;0.60;;
37559;SDS011;23398;50.928;7.084;2023-03-14T09:59:48;0.60;;;0.60;;
37559;SDS011;23398;50.928;7.084;2023-03-14T10:04:46;0.70;;;0.70;;
37559;SDS011;23398;50.928;7.084;2023-03-14T10:07:13;0.73;;;0.55;;
37559;SDS011;23398;50.928;7.084;2023-03-14T10:09:43;0.63;;;0.52;;
37559;SDS011;23398;50.928;7.084;2023-03-14T10:12:09;0.60;;;0.60;;
37559;SDS011;23398;50.928;7.084;2023-03-14T10:14:36;1.60;;;1.30;;
37559;SDS011;23398;50.928;7.084;2023-03-14T10:17:10;1.05;;;0.70;;
37559;SDS011;23398;50.928;7.084;2023-03-14T10:19:37;1.40;;;0.70;;
37559;SDS011;23398;50.928;7.084;2023-03-14T10:22:16;0.68;;;0.65;;
37559;SDS011;23398;50.928;7.084;2023-03-14T10:24:46;0.80;;;0.80;;
37559;SDS011;23398;50.928;7.084;2023-03-14T10:27:21;0.70;;;0.70;;
37559;SDS011;23398;50.928;7.084;2023-03-14T10:29:55;0.80;;;0.80;;
37559;SDS011;23398;50.928;7.084;2023-03-14T10:32:28;1.08;;;0.98;;
37559;SDS011;23398;50.928;7.084;2023-03-14T10:37:55;1.23;;;1.10;;
37559;SDS011;23398;50.928;7.084;2023-03-14T10:43:18;2.30;;;1.05;;
37559;SDS011;23398;50.928;7.084;2023-03-14T10:46:32;2.20;;;1.63;;
37559;SDS011;23398;50.928;7.084;2023-03-14T10:48:42;1.35;;;1.00;;
37559;SDS011;23398;50.928;7.084;2023-03-14T10:51:11;1.45;;;1.05;;
37559;SDS011;23398;50.928;7.084;2023-03-14T10:56:36;1.02;;;0.90;;
37559;SDS011;23398;50.928;7.084;2023-03-14T10:59:03;1.20;;;1.10;;
37559;SDS011;23398;50.928;7.084;2023-03-14T11:01:41;1.30;;;1.10;;
37559;SDS011;23398;50.928;7.084;2023-03-14T11:07:42;1.52;;;1.00;;
37559;SDS011;23398;50.928;7.084;2023-03-14T11:13:00;2.50;;;0.90;;
37559;SDS011;23398;50.928;7.084;2023-03-14T11:15:40;1.75;;;1.00;;
37559;SDS011;23398;50.928;7.084;2023-03-14T11:18:36;1.10;;;0.98;;
37559;SDS011;23398;50.928;7.084;2023-03-14T11:23:39;1.33;;;1.10;;
37559;SDS011;23398;50.928;7.084;2023-03-14T11:26:17;2.05;;;1.40;;
37559;SDS011;23398;50.928;7.084;2023-03-14T11:28:58;1.48;;;1.23;;
37559;SDS011;23398;50.928;7.084;2023-03-14T11:31:36;1.40;;;1.30;;
37559;SDS011;23398;50.928;7.084;2023-03-14T11:34:15;2.45;;;2.10;;
37559;SDS011;23398;50.928;7.084;2023-03-14T11:39:26;1.50;;;1.38;;
37559;SDS011;23398;50.928;7.084;2023-03-14T11:42:00;3.08;;;1.30;;
37559;SDS011;23398;50.928;7.084;2023-03-14T11:44:30;1.63;;;1.15;;
37559;SDS011;23398;50.928;7.084;2023-03-14T11:52:10;0.82;;;0.70;;
37559;SDS011;23398;50.928;7.084;2023-03-14T11:57:45;0.52;;;0.50;;
37559;SDS011;23398;50.928;7.084;2023-03-14T12:00:14;0.60;;;0.50;;
37559;SDS011;23398;50.928;7.084;2023-03-14T12:05:31;0.80;;;0.60;;
37559;SDS011;23398;50.928;7.084;2023-03-14T12:08:15;1.20;;;0.50;;
37559;SDS011;23398;50.928;7.084;2023-03-14T12:13:41;0.60;;;0.60;;
37559;SDS011;23398;50.928;7.084;2023-03-14T12:16:37;1.65;;;0.80;;
37559;SDS011;23398;50.928;7.084;2023-03-14T12:21:47;2.80;;;1.70;;
37559;SDS011;23398;50.928;7.084;2023-03-14T12:24:26;1.80;;;0.98;;
37559;SDS011;23398;50.928;7.084;2023-03-14T12:26:59;1.48;;;0.88;;
37559;SDS011;23398;50.928;7.084;2023-03-14T12:29:26;1.40;;;1.10;;
37559;SDS011;23398;50.928;7.084;2023-03-14T12:34:27;1.80;;;1.35;;
37559;SDS011;23398;50.928;7.084;2023-03-14T12:50:26;1.52;;;1.38;;
37559;SDS011;23398;50.928;7.084;2023-03-14T12:56:05;3.53;;;2.20;;
37559;SDS011;23398;50.928;7.084;2023-03-14T13:01:28;3.15;;;1.65;;
37559;SDS011;23398;50.928;7.084;2023-03-14T13:03:55;2.45;;;1.60;;
37559;SDS011;23398;50.928;7.084;2023-03-14T13:11:50;6.65;;;1.20;;
37559;SDS011;23398;50.928;7.084;2023-03-14T13:14:21;2.70;;;1.23;;
37559;SDS011;23398;50.928;7.084;2023-03-14T13:16:48;2.88;;;1.67;;
37559;SDS011;23398;50.928;7.084;2023-03-14T13:19:16;3.13;;;1.50;;
37559;SDS011;23398;50.928;7.084;2023-03-14T13:21:45;3.33;;;1.80;;
37559;SDS011;23398;50.928;7.084;2023-03-14T13:24:21;1.65;;;1.40;;
37559;SDS011;23398;50.928;7.084;2023-03-14T13:26:48;1.92;;;1.33;;
37559;SDS011;23398;50.928;7.084;2023-03-14T13:29:28;1.92;;;1.30;;
37559;SDS011;23398;50.928;7.084;2023-03-14T13:31:57;2.33;;;1.50;;
37559;SDS011;23398;50.928;7.084;2023-03-14T13:34:31;3.05;;;1.00;;
37559;SDS011;23398;50.928;7.084;2023-03-14T13:36:58;2.92;;;1.00;;
37559;SDS011;23398;50.928;7.084;2023-03-14T13:39:25;2.05;;;0.90;;
37559;SDS011;23398;50.928;7.084;2023-03-14T13:41:54;2.85;;;1.00;;
37559;SDS011;23398;50.928;7.084;2023-03-14T13:44:30;3.45;;;1.20;;
37559;SDS011;23398;50.928;7.084;2023-03-14T13:46:58;2.70;;;1.10;;
37559;SDS011;23398;50.928;7.084;2023-03-14T13:49:26;1.25;;;0.90;;
37559;SDS011;23398;50.928;7.084;2023-03-14T13:51:56;1.80;;;1.13;;
37559;SDS011;23398;50.928;7.084;2023-03-14T13:54:22;2.72;;;1.02;;
37559;SDS011;23398;50.928;7.084;2023-03-14T13:56:58;1.23;;;0.90;;
37559;SDS011;23398;50.928;7.084;2023-03-14T13:59:29;2.42;;;0.93;;
37559;SDS011;23398;50.928;7.084;2023-03-14T14:01:56;2.38;;;0.93;;
37559;SDS011;23398;50.928;7.084;2023-03-14T14:04:25;2.80;;;1.30;;
37559;SDS011;23398;50.928;7.084;2023-03-14T14:06:54;2.63;;;1.15;;
37559;SDS011;23398;50.928;7.084;2023-03-14T14:09:24;2.92;;;1.23;;
37559;SDS011;23398;50.928;7.084;2023-03-14T14:11:59;3.70;;;1.52;;
37559;SDS011;23398;50.928;7.084;2023-03-14T14:14:58;3.00;;;1.30;;
37559;SDS011;23398;50.928;7.084;2023-03-14T14:18:17;3.30;;;1.40;;
37559;SDS011;23398;50.928;7.084;2023-03-14T14:22:57;4.95;;;1.60;;
37559;SDS011;23398;50.928;7.084;2023-03-14T14:25:24;4.75;;;1.77;;
37559;SDS011;23398;50.928;7.084;2023-03-14T14:27:50;5.25;;;1.70;;
37559;SDS011;23398;50.928;7.084;2023-03-14T14:32:44;4.88;;;1.70;;
37559;SDS011;23398;50.928;7.084;2023-03-14T14:37:50;4.82;;;1.60;;
37559;SDS011;23398;50.928;7.084;2023-03-14T14:40:20;4.18;;;1.40;;
37559;SDS011;23398;50.928;7.084;2023-03-14T14:42:48;3.28;;;1.20;;
37559;SDS011;23398;50.928;7.084;2023-03-14T14:45:18;3.38;;;1.27;;
37559;SDS011;23398;50.928;7.084;2023-03-14T14:47:52;3.20;;;1.42;;
37559;SDS011;23398;50.928;7.084;2023-03-14T14:50:30;3.67;;;1.30;;
37559;SDS011;23398;50.928;7.084;2023-03-14T14:52:58;5.00;;;1.10;;
37559;SDS011;23398;50.928;7.084;2023-03-14T14:55:34;3.35;;;1.38;;
37559;SDS011;23398;50.928;7.084;2023-03-14T15:01:05;4.35;;;1.75;;
37559;SDS011;23398;50.928;7.084;2023-03-14T15:03:39;3.28;;;1.50;;
37559;SDS011;23398;50.928;7.084;2023-03-14T15:06:07;3.30;;;1.60;;
37559;SDS011;23398;50.928;7.084;2023-03-14T15:08:36;5.88;;;1.40;;
37559;SDS011;23398;50.928;7.084;2023-03-14T15:11:02;5.20;;;1.90;;
37559;SDS011;23398;50.928;7.084;2023-03-14T15:13:28;4.63;;;2.08;;
37559;SDS011;23398;50.928;7.084;2023-03-14T15:15:53;5.07;;;2.17;;
37559;SDS011;23398;50.928;7.084;2023-03-14T15:18:25;5.70;;;1.90;;
37559;SDS011;23398;50.928;7.084;2023-03-14T15:20:55;4.70;;;1.70;;
37559;SDS011;23398;50.928;7.084;2023-03-14T15:23:21;4.45;;;1.95;;
37559;SDS011;23398;50.928;7.084;2023-03-14T15:25:47;5.95;;;1.90;;
37559;SDS011;23398;50.928;7.084;2023-03-14T15:28:18;5.55;;;2.05;;
37559;SDS011;23398;50.928;7.084;2023-03-14T15:30:47;5.55;;;1.90;;
37559;SDS011;23398;50.928;7.084;2023-03-14T15:33:14;5.40;;;1.92;;
37559;SDS011;23398;50.928;7.084;2023-03-14T15:35:40;4.70;;;1.90;;
37559;SDS011;23398;50.928;7.084;2023-03-14T15:38:09;4.65;;;1.70;;
37559;SDS011;23398;50.928;7.084;2023-03-14T15:40:36;4.63;;;1.80;;
37559;SDS011;23398;50.928;7.084;2023-03-14T15:43:02;7.30;;;1.95;;
37559;SDS011;23398;50.928;7.084;2023-03-14T15:45:27;6.55;;;1.83;;
37559;SDS011;23398;50.928;7.084;2023-03-14T15:47:53;5.90;;;1.83;;
37559;SDS011;23398;50.928;7.084;2023-03-14T15:50:18;9.10;;;2.50;;
37559;SDS011;23398;50.928;7.084;2023-03-14T15:52:44;6.32;;;1.92;;
37559;SDS011;23398;50.928;7.084;2023-03-14T15:55:10;6.50;;;2.08;;
37559;SDS011;23398;50.928;7.084;2023-03-14T15:57:36;10.70;;;2.90;;
37559;SDS011;23398;50.928;7.084;2023-03-14T16:00:02;7.47;;;2.38;;
37559;SDS011;23398;50.928;7.084;2023-03-14T16:02:33;10.83;;;4.40;;
37559;SDS011;23398;50.928;7.084;2023-03-14T16:04:59;8.80;;;2.72;;
37559;SDS011;23398;50.928;7.084;2023-03-14T16:07:25;9.25;;;2.45;;
37559;SDS011;23398;50.928;7.084;2023-03-14T16:09:50;9.60;;;2.13;;
37559;SDS011;23398;50.928;7.084;2023-03-14T16:12:16;9.07;;;2.30;;
37559;SDS011;23398;50.928;7.084;2023-03-14T16:14:41;6.72;;;1.98;;
37559;SDS011;23398;50.928;7.084;2023-03-14T16:17:07;4.95;;;1.73;;
37559;SDS011;23398;50.928;7.084;2023-03-14T16:19:36;8.98;;;2.10;;
37559;SDS011;23398;50.928;7.084;2023-03-14T16:22:01;6.50;;;1.75;;
37559;SDS011;23398;50.928;7.084;2023-03-14T16:24:28;5.70;;;1.60;;